Alford, Indiana
Current Conditions -  °F | °C
As of 9:15 AM on Saturday 25 Oct 2014 (Local Time) from KDCY Reporting Station
Clear Clear  
Wind Chill: 62°   Ceiling: Unl
Heat Index: 62°   Visibility: 10mi
Dew Point: 57°   Wind: 10mph
Humidity: 84%   Direction: 270°W
Pressure: 30.01"   Gusts: NA
Location:  38.4723°N, 87.3105°W
Report Text: KDCY 251415Z AUTO 27009KT 10SM CLR 17/14 A3001 RMK AO2 T01680140
Loading
Personal Weather Stations






























Interactive Weather Map
Tropical Storm Tracking
New forecast layout! Learn more

10-Day Weather Forecast

Advertisements
Track Severe Weather on mobile